Time;durP1;ratioP1;P1;durP2;ratioP2;P2;SDS_P1;SDS_P2;PMS_P1;PMS_P2;Temp;Humidity;BMP_temperature;BMP_pressure;BME280_temperature;BME280_humidity;BME280_pressure;Samples;Min_cycle;Max_cycle;Signal;HPM_P1;HPM_P2
2022/07/19 00:02:04;;;;;;;4.55;1.50;;;;;;;;;;6301294;22;20170;-55
2022/07/19 00:04:30;;;;;;;2.28;1.40;;;;;;;;;;6291517;22;20457;-54
2022/07/19 00:06:57;;;;;;;3.47;1.30;;;;;;;;;;6290907;22;20041;-57
2022/07/19 00:09:25;;;;;;;1.42;1.33;;;;;;;;;;6299369;22;20030;-57
2022/07/19 00:11:52;;;;;;;2.10;1.52;;;;;;;;;;6289270;22;20019;-57
2022/07/19 00:14:18;;;;;;;2.20;1.42;;;;;;;;;;6301444;22;20077;-58
2022/07/19 00:16:45;;;;;;;2.58;1.70;;;;;;;;;;6293611;22;20106;-56
2022/07/19 00:19:11;;;;;;;2.53;1.20;;;;;;;;;;6298506;22;20015;-58
2022/07/19 00:21:38;;;;;;;2.22;1.40;;;;;;;;;;6289388;22;20037;-57
2022/07/19 00:24:05;;;;;;;5.28;1.52;;;;;;;;;;6297967;22;20012;-57
2022/07/19 00:26:33;;;;;;;2.88;1.75;;;;;;;;;;6288944;22;20011;-58
2022/07/19 00:29:01;;;;;;;3.40;2.00;;;;;;;;;;6297542;22;20064;-57
2022/07/19 00:31:29;;;;;;;2.40;1.40;;;;;;;;;;6291578;22;20042;-58
2022/07/19 00:33:55;;;;;;;2.42;1.60;;;;;;;;;;6293780;22;20132;-57
2022/07/19 00:36:22;;;;;;;3.13;1.33;;;;;;;;;;6289981;22;20056;-57
2022/07/19 00:38:48;;;;;;;2.08;1.67;;;;;;;;;;6294978;22;20081;-57
2022/07/19 00:41:15;;;;;;;4.53;1.85;;;;;;;;;;6293515;22;20015;-57
2022/07/19 00:43:44;;;;;;;1.50;1.40;;;;;;;;;;6296501;22;20017;-58
2022/07/19 00:46:14;;;;;;;3.38;1.60;;;;;;;;;;6300111;22;20019;-57
2022/07/19 00:48:41;;;;;;;3.72;2.13;;;;;;;;;;6288920;22;20011;-57
2022/07/19 00:51:08;;;;;;;4.80;2.20;;;;;;;;;;6296448;22;20011;-57
2022/07/19 00:53:35;;;;;;;2.15;1.63;;;;;;;;;;6289651;22;20011;-56
2022/07/19 00:56:03;;;;;;;2.70;1.67;;;;;;;;;;6300563;22;20012;-55
2022/07/19 00:58:30;;;;;;;2.03;1.83;;;;;;;;;;6286944;22;20011;-54
2022/07/19 01:00:58;;;;;;;2.75;1.83;;;;;;;;;;6297700;22;20069;-57
2022/07/19 01:03:25;;;;;;;5.55;1.88;;;;;;;;;;6290585;22;20011;-57
2022/07/19 01:05:51;;;;;;;2.17;2.05;;;;;;;;;;6298265;22;20016;-57
2022/07/19 01:08:18;;;;;;;3.95;1.88;;;;;;;;;;6291215;22;20444;-58
2022/07/19 01:10:45;;;;;;;2.30;1.73;;;;;;;;;;6297812;22;20019;-57
2022/07/19 01:13:13;;;;;;;4.13;1.70;;;;;;;;;;6292288;22;20019;-56
2022/07/19 01:15:40;;;;;;;3.80;1.70;;;;;;;;;;6299722;22;20017;-56
2022/07/19 01:18:08;;;;;;;2.10;1.65;;;;;;;;;;6280826;22;20092;-58
2022/07/19 01:20:35;;;;;;;2.33;2.00;;;;;;;;;;6298041;22;20035;-57
2022/07/19 01:23:03;;;;;;;8.02;2.10;;;;;;;;;;6290866;22;20022;-57
2022/07/19 01:25:31;;;;;;;2.42;1.63;;;;;;;;;;6299020;22;20093;-57
2022/07/19 01:27:58;;;;;;;3.33;2.40;;;;;;;;;;6288925;22;20019;-57
2022/07/19 01:30:25;;;;;;;3.38;1.63;;;;;;;;;;6294865;22;20023;-57
2022/07/19 01:32:52;;;;;;;2.28;1.80;;;;;;;;;;6292010;22;20011;-57
2022/07/19 01:35:19;;;;;;;2.30;1.88;;;;;;;;;;6297164;22;20011;-57
2022/07/19 01:37:45;;;;;;;2.33;2.00;;;;;;;;;;6287668;22;20015;-57
2022/07/19 01:40:14;;;;;;;3.25;1.95;;;;;;;;;;6298934;22;20033;-57
2022/07/19 01:42:41;;;;;;;5.90;1.83;;;;;;;;;;6286535;22;20018;-57
2022/07/19 01:45:08;;;;;;;3.15;2.28;;;;;;;;;;6293629;22;20019;-57
2022/07/19 01:47:35;;;;;;;2.70;2.05;;;;;;;;;;6293119;22;20086;-57
2022/07/19 01:50:01;;;;;;;2.03;1.77;;;;;;;;;;6282072;22;20313;-57
2022/07/19 01:52:28;;;;;;;2.22;1.60;;;;;;;;;;6301599;22;20015;-57
2022/07/19 01:54:54;;;;;;;5.10;1.90;;;;;;;;;;6289633;22;20053;-56
2022/07/19 01:57:22;;;;;;;3.38;2.20;;;;;;;;;;6273933;22;20015;-59
2022/07/19 01:59:49;;;;;;;5.32;2.08;;;;;;;;;;6294432;22;20012;-57
2022/07/19 02:02:16;;;;;;;3.88;1.80;;;;;;;;;;6298207;22;20011;-57
2022/07/19 02:04:42;;;;;;;5.32;2.25;;;;;;;;;;6291147;22;20090;-57
2022/07/19 02:07:09;;;;;;;2.00;1.48;;;;;;;;;;6277178;22;20011;-58
2022/07/19 02:09:35;;;;;;;4.63;1.90;;;;;;;;;;6291576;22;20028;-57
2022/07/19 02:12:02;;;;;;;4.78;1.75;;;;;;;;;;6295839;22;20023;-57
2022/07/19 02:14:30;;;;;;;6.25;2.15;;;;;;;;;;6288737;22;20207;-57
2022/07/19 02:16:56;;;;;;;2.28;1.83;;;;;;;;;;6291620;22;20011;-57
2022/07/19 02:19:23;;;;;;;6.20;1.95;;;;;;;;;;6289569;22;20011;-57
2022/07/19 02:21:49;;;;;;;1.85;1.40;;;;;;;;;;6292428;22;20022;-56
2022/07/19 02:24:16;;;;;;;4.70;1.83;;;;;;;;;;6298396;22;20226;-57
2022/07/19 02:26:42;;;;;;;3.72;2.10;;;;;;;;;;6289989;22;20026;-57
2022/07/19 02:29:09;;;;;;;5.20;2.28;;;;;;;;;;6288399;22;20067;-57
2022/07/19 02:31:37;;;;;;;3.13;1.90;;;;;;;;;;6291138;22;20016;-56
2022/07/19 02:34:04;;;;;;;5.53;2.00;;;;;;;;;;6292787;22;20017;-56
2022/07/19 02:36:30;;;;;;;5.75;2.03;;;;;;;;;;6295648;22;20060;-60
2022/07/19 02:38:58;;;;;;;4.80;2.13;;;;;;;;;;6294171;22;20016;-58
2022/07/19 02:41:24;;;;;;;4.13;2.03;;;;;;;;;;6298297;22;20050;-58
2022/07/19 02:43:51;;;;;;;7.03;2.00;;;;;;;;;;6289998;22;20015;-57
2022/07/19 02:46:17;;;;;;;5.50;2.00;;;;;;;;;;6296484;22;20067;-57
2022/07/19 02:48:45;;;;;;;2.90;1.90;;;;;;;;;;6293996;22;20049;-57
2022/07/19 02:51:13;;;;;;;2.22;1.70;;;;;;;;;;6293799;22;20075;-57
2022/07/19 02:53:41;;;;;;;4.38;1.90;;;;;;;;;;6297870;22;20018;-58
2022/07/19 02:56:07;;;;;;;6.45;2.15;;;;;;;;;;6296500;22;20019;-58
2022/07/19 02:58:34;;;;;;;5.05;2.10;;;;;;;;;;6297453;22;20012;-58
2022/07/19 03:01:00;;;;;;;4.15;1.90;;;;;;;;;;6293179;22;20073;-57
2022/07/19 03:03:46;;;;;;;3.40;2.10;;;;;;;;;;6299358;22;20015;-58
2022/07/19 03:06:15;;;;;;;2.30;1.48;;;;;;;;;;6296243;22;20717;-58
2022/07/19 03:08:42;;;;;;;2.35;1.75;;;;;;;;;;6297704;22;20015;-58
2022/07/19 03:11:08;;;;;;;7.82;1.73;;;;;;;;;;6293854;22;20015;-58
2022/07/19 03:13:35;;;;;;;3.20;1.67;;;;;;;;;;6295903;22;20019;-58
2022/07/19 03:16:02;;;;;;;3.15;1.65;;;;;;;;;;6289536;22;20011;-59
2022/07/19 03:18:28;;;;;;;3.75;1.77;;;;;;;;;;6297845;22;20038;-58
2022/07/19 03:20:57;;;;;;;3.28;1.90;;;;;;;;;;6286175;22;20437;-58
2022/07/19 03:23:25;;;;;;;3.83;2.30;;;;;;;;;;6297838;22;20039;-59
2022/07/19 03:25:52;;;;;;;4.22;2.45;;;;;;;;;;6290950;22;20160;-60
2022/07/19 03:28:18;;;;;;;4.90;1.85;;;;;;;;;;6303455;22;20011;-58
2022/07/19 03:30:45;;;;;;;5.32;2.05;;;;;;;;;;6289268;22;20609;-58
2022/07/19 03:33:15;;;;;;;2.55;1.70;;;;;;;;;;6298188;22;20015;-57
2022/07/19 03:35:42;;;;;;;2.42;1.48;;;;;;;;;;6295651;22;20023;-58
2022/07/19 03:38:09;;;;;;;4.10;2.08;;;;;;;;;;6291422;22;20038;-58
2022/07/19 03:40:37;;;;;;;5.50;1.70;;;;;;;;;;6297768;22;20019;-58
2022/07/19 03:43:04;;;;;;;2.97;1.50;;;;;;;;;;6288469;22;20388;-57
2022/07/19 03:45:30;;;;;;;4.35;2.00;;;;;;;;;;6299151;22;20016;-56
2022/07/19 03:47:57;;;;;;;2.92;2.17;;;;;;;;;;6289120;22;20015;-59
2022/07/19 03:50:24;;;;;;;4.13;1.90;;;;;;;;;;6289702;22;20045;-58
2022/07/19 03:52:51;;;;;;;3.08;1.95;;;;;;;;;;6291086;22;20404;-57
2022/07/19 03:55:18;;;;;;;2.55;1.92;;;;;;;;;;6298218;22;20011;-57
2022/07/19 03:57:45;;;;;;;8.05;2.10;;;;;;;;;;6291362;22;20061;-58
2022/07/19 04:00:12;;;;;;;4.25;1.83;;;;;;;;;;6304390;22;20019;-57
2022/07/19 04:02:39;;;;;;;3.80;1.95;;;;;;;;;;6290316;22;20015;-58
2022/07/19 04:05:06;;;;;;;3.90;1.65;;;;;;;;;;6300401;22;20013;-58
2022/07/19 04:07:33;;;;;;;2.47;1.60;;;;;;;;;;6285290;22;20019;-58
2022/07/19 04:09:59;;;;;;;4.20;1.75;;;;;;;;;;6296646;22;20011;-58
2022/07/19 04:12:25;;;;;;;4.65;1.77;;;;;;;;;;6288638;22;20069;-58
2022/07/19 04:14:53;;;;;;;3.38;1.88;;;;;;;;;;6297079;22;20012;-57
2022/07/19 04:17:21;;;;;;;3.47;1.65;;;;;;;;;;6279029;22;20011;-58
2022/07/19 04:19:47;;;;;;;3.83;1.90;;;;;;;;;;6297605;22;20084;-58
2022/07/19 04:22:14;;;;;;;3.60;1.95;;;;;;;;;;6293709;22;20076;-58
2022/07/19 04:24:41;;;;;;;3.65;2.00;;;;;;;;;;6294139;22;20011;-57
2022/07/19 04:27:07;;;;;;;2.58;1.92;;;;;;;;;;6297405;22;20019;-57
2022/07/19 04:29:34;;;;;;;4.60;2.50;;;;;;;;;;6279449;22;20090;-57
2022/07/19 04:32:02;;;;;;;3.97;2.20;;;;;;;;;;6298442;22;20019;-57
2022/07/19 04:34:28;;;;;;;4.80;2.03;;;;;;;;;;6288502;22;20012;-57
2022/07/19 04:36:55;;;;;;;3.92;2.00;;;;;;;;;;6294743;22;20499;-56
2022/07/19 04:39:21;;;;;;;4.80;1.90;;;;;;;;;;6289888;22;20015;-58
2022/07/19 04:41:48;;;;;;;5.65;2.10;;;;;;;;;;6297483;22;20031;-58
2022/07/19 04:44:14;;;;;;;5.03;2.13;;;;;;;;;;6291806;22;20451;-58
2022/07/19 04:46:41;;;;;;;7.20;2.25;;;;;;;;;;6297636;22;20011;-57
2022/07/19 04:49:09;;;;;;;3.53;1.90;;;;;;;;;;6284406;22;20053;-58
2022/07/19 04:51:35;;;;;;;3.42;2.45;;;;;;;;;;6292408;22;20019;-58
2022/07/19 04:54:02;;;;;;;7.63;2.45;;;;;;;;;;6289079;22;20475;-58
2022/07/19 04:56:28;;;;;;;2.92;1.90;;;;;;;;;;6300093;22;20019;-58
2022/07/19 04:58:55;;;;;;;6.13;2.90;;;;;;;;;;6291702;22;20011;-55
2022/07/19 05:01:21;;;;;;;6.28;2.40;;;;;;;;;;6293747;22;20419;-58
2022/07/19 05:03:48;;;;;;;5.65;2.13;;;;;;;;;;6286204;22;20041;-58
2022/07/19 05:06:16;;;;;;;2.70;2.13;;;;;;;;;;6294202;22;20012;-57
2022/07/19 05:08:42;;;;;;;2.97;2.30;;;;;;;;;;6292050;22;20015;-58
2022/07/19 05:11:09;;;;;;;9.07;2.47;;;;;;;;;;6285726;22;20508;-58
2022/07/19 05:13:36;;;;;;;4.85;2.10;;;;;;;;;;6290031;22;20334;-57
2022/07/19 05:16:02;;;;;;;2.97;1.90;;;;;;;;;;6297570;22;20465;-57
2022/07/19 05:18:28;;;;;;;5.90;3.00;;;;;;;;;;6293381;22;20015;-58
2022/07/19 05:20:55;;;;;;;5.25;2.20;;;;;;;;;;6290552;22;20015;-58
2022/07/19 05:23:23;;;;;;;6.95;2.55;;;;;;;;;;6294058;22;20015;-58
2022/07/19 05:25:49;;;;;;;5.10;1.60;;;;;;;;;;6292959;22;20033;-58
2022/07/19 05:28:16;;;;;;;5.10;2.50;;;;;;;;;;6290440;22;20012;-58
2022/07/19 05:30:43;;;;;;;4.25;2.28;;;;;;;;;;6289020;22;20049;-58
2022/07/19 05:33:09;;;;;;;5.50;2.22;;;;;;;;;;6289845;22;20031;-58
2022/07/19 05:35:36;;;;;;;6.35;1.95;;;;;;;;;;6294514;22;20015;-58
2022/07/19 05:38:03;;;;;;;4.93;2.45;;;;;;;;;;6290681;22;20540;-58
2022/07/19 05:40:31;;;;;;;6.68;2.10;;;;;;;;;;6290252;22;20015;-58
2022/07/19 05:42:57;;;;;;;3.50;2.03;;;;;;;;;;6293849;22;20015;-59
2022/07/19 05:45:24;;;;;;;5.85;1.80;;;;;;;;;;6294778;22;20425;-58
2022/07/19 05:47:51;;;;;;;5.20;2.60;;;;;;;;;;6291390;22;20309;-56
2022/07/19 05:50:17;;;;;;;7.07;2.38;;;;;;;;;;6295764;22;20695;-57
2022/07/19 05:52:44;;;;;;;4.72;2.20;;;;;;;;;;6292871;22;20045;-58
2022/07/19 05:55:10;;;;;;;4.90;2.33;;;;;;;;;;6291053;22;20046;-58
2022/07/19 05:57:38;;;;;;;14.63;2.67;;;;;;;;;;6292845;22;20017;-58
2022/07/19 06:00:05;;;;;;;7.20;2.20;;;;;;;;;;6294361;22;20037;-58
2022/07/19 06:02:32;;;;;;;5.55;2.35;;;;;;;;;;6296177;22;20037;-58
2022/07/19 06:04:58;;;;;;;5.05;2.15;;;;;;;;;;6284325;22;20015;-57
2022/07/19 06:07:25;;;;;;;11.43;2.40;;;;;;;;;;6298204;22;20018;-57
2022/07/19 06:09:51;;;;;;;6.97;2.67;;;;;;;;;;6286739;22;20041;-56
2022/07/19 06:12:19;;;;;;;5.68;2.30;;;;;;;;;;6297310;22;20069;-58
2022/07/19 06:14:47;;;;;;;5.03;2.47;;;;;;;;;;6294588;22;20478;-58
2022/07/19 06:17:13;;;;;;;6.13;2.40;;;;;;;;;;6291389;22;20015;-57
2022/07/19 06:19:40;;;;;;;8.32;2.50;;;;;;;;;;6290632;22;20384;-57
2022/07/19 06:22:06;;;;;;;5.43;2.10;;;;;;;;;;6287702;22;20073;-58
2022/07/19 06:24:33;;;;;;;6.03;2.35;;;;;;;;;;6297550;22;20011;-58
2022/07/19 06:27:00;;;;;;;7.07;2.47;;;;;;;;;;6284973;22;20008;-57
2022/07/19 06:29:26;;;;;;;7.05;2.58;;;;;;;;;;6288475;22;20011;-57
2022/07/19 06:31:54;;;;;;;7.35;2.50;;;;;;;;;;6287169;22;20481;-57
2022/07/19 06:34:21;;;;;;;4.90;2.50;;;;;;;;;;6286279;22;20011;-57
2022/07/19 06:36:47;;;;;;;5.97;2.65;;;;;;;;;;6290803;22;20011;-57
2022/07/19 06:39:14;;;;;;;14.85;3.20;;;;;;;;;;6289592;22;20019;-57
2022/07/19 06:41:41;;;;;;;5.57;2.20;;;;;;;;;;6290313;22;20372;-57
2022/07/19 06:44:07;;;;;;;8.35;1.90;;;;;;;;;;6288991;22;20023;-58
2022/07/19 06:46:34;;;;;;;7.95;2.00;;;;;;;;;;6292030;22;20026;-58
2022/07/19 06:49:02;;;;;;;9.18;2.00;;;;;;;;;;6291482;22;20018;-58
2022/07/19 06:51:28;;;;;;;11.23;2.47;;;;;;;;;;6284997;22;20092;-58
2022/07/19 06:53:55;;;;;;;8.73;2.70;;;;;;;;;;6292870;22;20016;-58
2022/07/19 06:56:21;;;;;;;7.28;2.10;;;;;;;;;;6294262;22;20011;-58
2022/07/19 06:58:48;;;;;;;11.63;2.50;;;;;;;;;;6288538;22;20019;-58
2022/07/19 07:01:14;;;;;;;7.63;2.22;;;;;;;;;;6294718;22;20031;-59
2022/07/19 07:03:41;;;;;;;5.88;2.40;;;;;;;;;;6293114;22;20029;-58
2022/07/19 07:06:09;;;;;;;6.88;2.13;;;;;;;;;;6293832;22;20034;-58
2022/07/19 07:08:37;;;;;;;5.95;2.30;;;;;;;;;;6283665;22;20011;-59
2022/07/19 07:11:04;;;;;;;6.32;2.45;;;;;;;;;;6291404;22;20469;-58
2022/07/19 07:13:30;;;;;;;10.55;2.55;;;;;;;;;;6292664;22;20046;-58
2022/07/19 07:15:57;;;;;;;10.23;3.00;;;;;;;;;;6287251;22;20037;-57
2022/07/19 07:18:23;;;;;;;3.67;1.88;;;;;;;;;;6293838;22;20011;-58
2022/07/19 07:20:50;;;;;;;4.78;2.00;;;;;;;;;;6288628;22;20012;-57
2022/07/19 07:23:19;;;;;;;8.65;2.30;;;;;;;;;;6298354;22;20393;-58
2022/07/19 07:25:45;;;;;;;8.80;2.80;;;;;;;;;;6289312;22;20015;-58
2022/07/19 07:28:12;;;;;;;5.63;2.65;;;;;;;;;;6285525;22;20045;-57
2022/07/19 07:30:38;;;;;;;6.22;2.80;;;;;;;;;;6292455;22;20041;-58
2022/07/19 07:33:05;;;;;;;10.50;3.25;;;;;;;;;;6281722;22;20041;-58
2022/07/19 07:35:32;;;;;;;7.65;3.15;;;;;;;;;;6295887;22;20015;-57
2022/07/19 07:37:58;;;;;;;10.50;4.35;;;;;;;;;;6290161;22;20039;-58
2022/07/19 07:40:26;;;;;;;6.38;2.97;;;;;;;;;;6293925;22;20041;-58
2022/07/19 07:42:53;;;;;;;6.45;2.60;;;;;;;;;;6288062;22;20410;-58
2022/07/19 07:45:19;;;;;;;14.48;2.60;;;;;;;;;;6292620;22;20317;-57
2022/07/19 07:47:46;;;;;;;6.50;2.33;;;;;;;;;;6287654;22;20018;-58
2022/07/19 07:50:12;;;;;;;6.15;1.92;;;;;;;;;;6293199;22;20023;-57
2022/07/19 07:52:39;;;;;;;9.40;2.00;;;;;;;;;;6277931;22;20485;-58
2022/07/19 07:55:06;;;;;;;4.38;2.50;;;;;;;;;;6294037;22;20015;-58
2022/07/19 07:57:34;;;;;;;5.55;2.15;;;;;;;;;;6288945;22;20019;-58
2022/07/19 08:00:00;;;;;;;4.88;2.03;;;;;;;;;;6288666;22;20018;-58
2022/07/19 08:02:27;;;;;;;6.15;2.35;;;;;;;;;;6271345;22;20015;-58
2022/07/19 08:04:53;;;;;;;4.43;2.00;;;;;;;;;;6277920;22;20015;-58
2022/07/19 08:07:20;;;;;;;5.78;2.22;;;;;;;;;;6287890;22;20370;-58
2022/07/19 08:09:47;;;;;;;2.47;1.20;;;;;;;;;;6293101;22;20233;-58
2022/07/19 08:12:13;;;;;;;5.78;1.77;;;;;;;;;;6294747;22;20026;-57
2022/07/19 08:14:41;;;;;;;6.13;2.53;;;;;;;;;;6292349;22;20011;-58
2022/07/19 08:17:08;;;;;;;7.40;2.67;;;;;;;;;;6296890;22;20045;-58
2022/07/19 08:19:35;;;;;;;4.65;1.75;;;;;;;;;;6291889;22;20015;-58
2022/07/19 08:22:02;;;;;;;10.50;2.33;;;;;;;;;;6289492;22;20114;-58
2022/07/19 08:24:28;;;;;;;4.63;2.25;;;;;;;;;;6294332;22;20016;-58
2022/07/19 08:26:55;;;;;;;7.90;2.45;;;;;;;;;;6284718;22;20023;-58
2022/07/19 08:29:22;;;;;;;2.60;1.60;;;;;;;;;;6298009;22;20015;-58
2022/07/19 08:31:51;;;;;;;3.13;1.85;;;;;;;;;;6288005;22;20023;-59
2022/07/19 08:34:17;;;;;;;6.40;3.00;;;;;;;;;;6298250;22;20019;-58
2022/07/19 08:36:44;;;;;;;5.75;2.28;;;;;;;;;;6286388;22;20011;-58
2022/07/19 08:39:10;;;;;;;2.85;1.67;;;;;;;;;;6296954;22;20015;-58
2022/07/19 08:41:37;;;;;;;5.65;2.20;;;;;;;;;;6287871;22;20653;-58
2022/07/19 08:44:04;;;;;;;9.95;3.75;;;;;;;;;;6295425;22;20033;-58
2022/07/19 08:46:31;;;;;;;4.70;2.10;;;;;;;;;;6288420;22;20016;-58
2022/07/19 08:48:59;;;;;;;5.25;2.15;;;;;;;;;;6301316;22;20016;-58
2022/07/19 08:51:26;;;;;;;5.95;2.17;;;;;;;;;;6282658;22;20451;-57
2022/07/19 08:53:54;;;;;;;2.60;2.13;;;;;;;;;;6279817;22;20090;-57
2022/07/19 08:59:05;;;;;;;7.78;2.92;;;;;;;;;;6291761;22;20027;-58
2022/07/19 09:01:32;;;;;;;4.28;1.63;;;;;;;;;;6301723;22;20011;-58
2022/07/19 09:04:11;;;;;;;6.55;2.55;;;;;;;;;;6281533;22;20015;-58
2022/07/19 09:06:38;;;;;;;1.63;1.50;;;;;;;;;;6297439;22;20075;-58
2022/07/19 09:09:05;;;;;;;8.43;2.83;;;;;;;;;;6290550;22;20026;-57
2022/07/19 09:11:35;;;;;;;4.53;2.33;;;;;;;;;;6295159;22;20030;-56
2022/07/19 09:14:06;;;;;;;7.65;3.08;;;;;;;;;;6287881;22;20022;-60
2022/07/19 09:16:47;;;;;;;2.58;1.45;;;;;;;;;;6301400;22;20011;-58
2022/07/19 09:19:15;;;;;;;5.93;2.03;;;;;;;;;;6284530;22;20022;-58
2022/07/19 09:21:51;;;;;;;2.92;2.03;;;;;;;;;;6289300;22;20707;-59
2022/07/19 09:24:18;;;;;;;6.78;2.40;;;;;;;;;;6300559;22;20076;-59
2022/07/19 09:26:54;;;;;;;6.75;2.25;;;;;;;;;;6286191;22;20515;-57
2022/07/19 09:29:20;;;;;;;5.95;1.77;;;;;;;;;;6295392;22;20037;-57
2022/07/19 09:31:58;;;;;;;11.30;2.58;;;;;;;;;;6288369;22;20027;-57
2022/07/19 09:34:28;;;;;;;7.13;2.17;;;;;;;;;;6297827;22;20037;-57
2022/07/19 09:37:07;;;;;;;4.20;2.13;;;;;;;;;;6289685;22;20042;-59
2022/07/19 09:39:35;;;;;;;10.32;2.90;;;;;;;;;;6280215;22;20011;-59
2022/07/19 09:42:02;;;;;;;5.85;2.10;;;;;;;;;;6300528;22;20101;-59
2022/07/19 09:44:29;;;;;;;2.53;1.30;;;;;;;;;;6284611;22;20015;-59
2022/07/19 09:46:56;;;;;;;1.35;1.25;;;;;;;;;;6293338;22;20083;-57
2022/07/19 09:49:22;;;;;;;3.95;2.20;;;;;;;;;;6287239;22;20094;-58
2022/07/19 09:51:51;;;;;;;3.55;1.48;;;;;;;;;;6295767;22;20026;-58
2022/07/19 09:54:18;;;;;;;5.57;1.80;;;;;;;;;;6290501;22;20015;-58
2022/07/19 09:56:45;;;;;;;5.05;2.13;;;;;;;;;;6298432;22;20021;-58
2022/07/19 09:59:13;;;;;;;4.85;2.30;;;;;;;;;;6292918;22;20015;-58
2022/07/19 10:01:40;;;;;;;3.83;2.10;;;;;;;;;;6291386;22;20011;-58
2022/07/19 10:04:07;;;;;;;5.38;2.75;;;;;;;;;;6281860;22;20037;-58
2022/07/19 10:06:34;;;;;;;6.28;2.15;;;;;;;;;;6293404;22;20462;-58
2022/07/19 10:09:02;;;;;;;5.38;2.67;;;;;;;;;;6288919;22;20007;-57
2022/07/19 10:11:30;;;;;;;1.95;1.63;;;;;;;;;;6285756;22;20699;-57
2022/07/19 10:13:57;;;;;;;7.00;1.85;;;;;;;;;;6288761;22;20023;-58
2022/07/19 10:16:28;;;;;;;7.78;2.22;;;;;;;;;;6299599;22;20300;-57
2022/07/19 10:19:00;;;;;;;4.32;1.65;;;;;;;;;;6288925;22;20045;-57
2022/07/19 10:21:27;;;;;;;3.47;1.67;;;;;;;;;;6292272;22;20012;-57
2022/07/19 10:23:53;;;;;;;5.88;2.65;;;;;;;;;;6294264;22;20017;-57
2022/07/19 10:26:35;;;;;;;7.43;2.53;;;;;;;;;;6286549;22;20019;-57
2022/07/19 10:29:10;;;;;;;7.85;2.65;;;;;;;;;;6292666;22;20011;-58
2022/07/19 10:31:36;;;;;;;4.85;2.63;;;;;;;;;;6272515;22;20022;-58
2022/07/19 10:34:04;;;;;;;4.40;2.42;;;;;;;;;;6294327;22;20414;-58
2022/07/19 10:36:38;;;;;;;7.07;2.25;;;;;;;;;;6292092;22;20026;-58
2022/07/19 10:39:26;;;;;;;5.65;1.77;;;;;;;;;;6292124;22;20011;-58
2022/07/19 10:42:20;;;;;;;3.95;2.25;;;;;;;;;;6294446;22;20478;-58
2022/07/19 10:45:16;;;;;;;4.25;2.05;;;;;;;;;;6223096;22;20321;-59
2022/07/19 10:48:04;;;;;;;4.65;2.10;;;;;;;;;;6165013;23;20017;-58
2022/07/19 10:50:44;;;;;;;5.15;1.83;;;;;;;;;;6264020;22;20021;-58
2022/07/19 10:53:10;;;;;;;3.63;2.20;;;;;;;;;;6296408;22;20022;-58
2022/07/19 10:55:37;;;;;;;5.32;2.10;;;;;;;;;;6290209;22;20015;-58
2022/07/19 10:58:10;;;;;;;4.47;1.80;;;;;;;;;;6294327;22;20829;-58
2022/07/19 11:00:43;;;;;;;3.13;1.88;;;;;;;;;;6292469;22;20041;-58
2022/07/19 11:03:30;;;;;;;3.80;2.33;;;;;;;;;;6296801;22;20019;-58
2022/07/19 11:05:58;;;;;;;4.20;1.60;;;;;;;;;;6294683;22;20153;-62
2022/07/19 11:08:32;;;;;;;3.67;1.75;;;;;;;;;;6296973;22;20042;-60
2022/07/19 11:11:03;;;;;;;2.38;2.17;;;;;;;;;;6291462;22;20022;-57
2022/07/19 11:13:29;;;;;;;7.13;2.20;;;;;;;;;;6288104;22;20573;-58
2022/07/19 11:15:56;;;;;;;2.20;1.10;;;;;;;;;;6295664;22;20015;-57
2022/07/19 11:18:22;;;;;;;1.80;1.15;;;;;;;;;;6296967;22;20011;-57
2022/07/19 11:20:50;;;;;;;1.67;1.10;;;;;;;;;;6291854;22;20015;-57
2022/07/19 11:23:21;;;;;;;4.63;1.70;;;;;;;;;;6300066;22;20015;-57
2022/07/19 11:25:49;;;;;;;3.88;2.25;;;;;;;;;;6297823;22;20071;-57
2022/07/19 11:28:22;;;;;;;4.43;2.00;;;;;;;;;;6292694;22;20387;-57
2022/07/19 11:30:48;;;;;;;1.27;1.17;;;;;;;;;;6298669;22;20504;-57
2022/07/19 11:33:17;;;;;;;2.28;1.40;;;;;;;;;;6292432;22;20023;-57
2022/07/19 11:35:54;;;;;;;1.88;1.73;;;;;;;;;;6299179;22;20011;-57
2022/07/19 11:38:21;;;;;;;6.78;2.30;;;;;;;;;;6291179;22;20726;-57
2022/07/19 11:40:47;;;;;;;4.90;2.13;;;;;;;;;;6292823;22;20060;-57
2022/07/19 11:43:14;;;;;;;5.28;2.45;;;;;;;;;;6288217;22;20110;-58
2022/07/19 11:45:44;;;;;;;1.80;1.20;;;;;;;;;;6296822;22;20393;-57
2022/07/19 11:48:11;;;;;;;3.03;2.35;;;;;;;;;;6281791;22;20524;-57
2022/07/19 11:50:39;;;;;;;3.53;1.58;;;;;;;;;;6295756;22;20015;-57
2022/07/19 11:53:07;;;;;;;3.80;1.80;;;;;;;;;;6288357;22;20026;-57
2022/07/19 11:55:36;;;;;;;5.78;2.15;;;;;;;;;;6292751;22;20072;-57
2022/07/19 11:58:07;;;;;;;3.78;2.28;;;;;;;;;;6287166;22;20440;-57
2022/07/19 12:00:34;;;;;;;6.78;2.45;;;;;;;;;;6302763;22;20045;-57
2022/07/19 12:03:04;;;;;;;7.78;2.30;;;;;;;;;;6281762;22;20463;-57
2022/07/19 12:05:32;;;;;;;1.98;1.60;;;;;;;;;;6294747;22;20015;-57
2022/07/19 12:08:00;;;;;;;1.40;0.83;;;;;;;;;;6286392;22;20019;-57
2022/07/19 12:10:35;;;;;;;1.67;1.58;;;;;;;;;;6289403;22;20747;-58
2022/07/19 12:13:02;;;;;;;3.22;2.13;;;;;;;;;;6269875;22;20023;-57
2022/07/19 12:15:42;;;;;;;5.35;2.45;;;;;;;;;;6261434;22;20022;-58
2022/07/19 12:18:08;;;;;;;4.45;2.42;;;;;;;;;;6212068;22;20041;-57
2022/07/19 12:20:37;;;;;;;2.80;1.75;;;;;;;;;;6196773;22;20607;-57
2022/07/19 12:23:12;;;;;;;3.72;1.88;;;;;;;;;;6274301;22;20015;-57
2022/07/19 12:25:40;;;;;;;4.65;2.35;;;;;;;;;;6288220;22;20069;-57
2022/07/19 12:28:06;;;;;;;3.42;2.13;;;;;;;;;;6286677;22;20078;-57
2022/07/19 12:30:33;;;;;;;5.53;1.70;;;;;;;;;;6289237;22;20011;-58
2022/07/19 12:33:06;;;;;;;3.35;2.30;;;;;;;;;;6288518;22;20019;-58
2022/07/19 12:35:41;;;;;;;2.50;1.80;;;;;;;;;;6291939;22;20015;-58
2022/07/19 12:38:09;;;;;;;8.95;2.20;;;;;;;;;;6286435;22;20019;-57
2022/07/19 12:40:35;;;;;;;4.85;2.40;;;;;;;;;;6288452;22;20019;-58
2022/07/19 12:43:03;;;;;;;4.57;2.65;;;;;;;;;;6286436;22;20181;-57
2022/07/19 12:45:31;;;;;;;5.95;2.13;;;;;;;;;;6289418;22;20082;-57
2022/07/19 12:47:57;;;;;;;10.43;2.63;;;;;;;;;;6288015;22;20424;-58
2022/07/19 12:50:27;;;;;;;7.70;2.60;;;;;;;;;;6287725;22;20015;-59
2022/07/19 12:52:55;;;;;;;13.10;2.63;;;;;;;;;;6231875;22;20365;-57
2022/07/19 12:55:23;;;;;;;3.95;3.05;;;;;;;;;;6253621;22;20041;-58
2022/07/19 12:57:50;;;;;;;3.55;2.10;;;;;;;;;;6225132;22;20038;-57
2022/07/19 13:00:20;;;;;;;9.23;3.58;;;;;;;;;;6253211;22;20047;-58
2022/07/19 13:02:56;;;;;;;6.53;2.90;;;;;;;;;;6214210;22;20019;-58
2022/07/19 13:05:23;;;;;;;5.35;3.10;;;;;;;;;;6290673;22;20038;-58
2022/07/19 13:07:50;;;;;;;3.35;2.92;;;;;;;;;;6293939;22;20021;-57
2022/07/19 13:10:17;;;;;;;6.65;3.45;;;;;;;;;;6291901;22;20015;-57
2022/07/19 13:12:44;;;;;;;10.48;3.08;;;;;;;;;;6297558;22;20011;-58
2022/07/19 13:15:11;;;;;;;18.08;3.13;;;;;;;;;;6294100;22;20047;-57
2022/07/19 13:17:39;;;;;;;7.78;2.25;;;;;;;;;;6259242;22;20015;-58
2022/07/19 13:20:07;;;;;;;5.43;2.47;;;;;;;;;;6263364;22;20492;-57
2022/07/19 13:22:34;;;;;;;5.00;1.93;;;;;;;;;;6261819;22;20023;-57
2022/07/19 13:25:00;;;;;;;8.27;3.15;;;;;;;;;;6257760;22;20106;-57
2022/07/19 13:27:27;;;;;;;5.13;2.80;;;;;;;;;;6276596;22;20037;-58
2022/07/19 13:29:53;;;;;;;5.20;2.70;;;;;;;;;;6290279;22;20022;-57
2022/07/19 13:32:20;;;;;;;5.38;2.85;;;;;;;;;;6283198;22;20458;-57
2022/07/19 13:34:48;;;;;;;4.00;2.40;;;;;;;;;;6299131;22;20019;-58
2022/07/19 13:37:14;;;;;;;9.45;3.30;;;;;;;;;;6267231;22;20015;-57
2022/07/19 13:39:41;;;;;;;3.00;2.13;;;;;;;;;;6295549;22;20297;-58
2022/07/19 13:42:07;;;;;;;2.35;1.77;;;;;;;;;;6284290;22;20019;-58
2022/07/19 13:44:34;;;;;;;5.20;2.20;;;;;;;;;;6292712;22;20011;-58
2022/07/19 13:47:00;;;;;;;5.22;2.20;;;;;;;;;;6290846;22;20045;-58
2022/07/19 13:49:27;;;;;;;7.30;3.20;;;;;;;;;;6294213;22;20011;-58
2022/07/19 13:51:55;;;;;;;5.22;3.92;;;;;;;;;;6285374;22;20015;-57
2022/07/19 13:54:22;;;;;;;5.45;4.80;;;;;;;;;;6297661;22;20118;-58
2022/07/19 13:56:49;;;;;;;5.65;4.80;;;;;;;;;;6286319;22;20031;-57
2022/07/19 13:59:15;;;;;;;6.28;5.70;;;;;;;;;;6297642;22;20029;-58
2022/07/19 14:01:41;;;;;;;8.65;6.93;;;;;;;;;;6299482;22;20027;-58
2022/07/19 14:04:09;;;;;;;5.57;5.03;;;;;;;;;;6295205;22;20015;-58
2022/07/19 14:06:35;;;;;;;8.55;7.38;;;;;;;;;;6293340;22;20354;-57
2022/07/19 14:09:03;;;;;;;8.52;7.70;;;;;;;;;;6273650;22;20015;-58
2022/07/19 14:11:30;;;;;;;7.82;7.13;;;;;;;;;;6293342;22;20011;-58
2022/07/19 14:13:57;;;;;;;7.38;6.50;;;;;;;;;;6290146;22;20023;-58
2022/07/19 14:16:23;;;;;;;8.80;7.40;;;;;;;;;;6283269;22;20085;-57
2022/07/19 14:18:50;;;;;;;6.13;5.63;;;;;;;;;;6299590;22;20011;-57
2022/07/19 14:21:16;;;;;;;7.43;6.68;;;;;;;;;;6277425;22;20342;-58
2022/07/19 14:23:43;;;;;;;9.00;5.32;;;;;;;;;;6298994;22;20015;-58
2022/07/19 14:26:11;;;;;;;5.28;4.88;;;;;;;;;;6281140;22;20026;-58
2022/07/19 14:28:37;;;;;;;8.07;5.82;;;;;;;;;;6291885;22;20015;-58
2022/07/19 14:31:04;;;;;;;5.18;4.10;;;;;;;;;;6288693;22;20038;-57
2022/07/19 14:33:30;;;;;;;7.10;3.35;;;;;;;;;;6297266;22;20020;-57
2022/07/19 14:35:57;;;;;;;5.38;4.05;;;;;;;;;;6286525;22;20313;-58
2022/07/19 14:38:23;;;;;;;3.83;2.88;;;;;;;;;;6298846;22;20011;-58
2022/07/19 14:40:50;;;;;;;4.15;3.75;;;;;;;;;;6293781;22;20332;-57
2022/07/19 14:43:18;;;;;;;6.10;3.88;;;;;;;;;;6293383;22;20016;-58
2022/07/19 14:45:44;;;;;;;6.22;4.15;;;;;;;;;;6288038;22;20362;-57
2022/07/19 14:48:12;;;;;;;4.47;3.60;;;;;;;;;;6296415;22;20035;-57
2022/07/19 14:50:38;;;;;;;4.93;3.45;;;;;;;;;;6281261;22;20016;-58